Time;durP1;ratioP1;P1;durP2;ratioP2;P2;SDS_P1;SDS_P2;PMS_P1;PMS_P2;Temp;Humidity;BMP_temperature;BMP_pressure;BME280_temperature;BME280_humidity;BME280_pressure;Samples;Min_cycle;Max_cycle;Signal;HPM_P1;HPM_P2
2023/09/23 00:01:32;;;;;;;2.13;1.20;;;12.30;99.90;;;;;;4976759;28;20090;-73
2023/09/23 00:03:58;;;;;;;3.67;1.50;;;12.40;99.90;;;;;;4977917;28;20058;-72
2023/09/23 00:06:24;;;;;;;2.33;1.10;;;12.30;99.90;;;;;;4994811;28;20042;-71
2023/09/23 00:08:50;;;;;;;2.38;1.30;;;12.40;99.90;;;;;;4977396;28;20057;-72
2023/09/23 00:11:16;;;;;;;3.75;1.30;;;12.40;99.90;;;;;;4977420;28;20057;-72
2023/09/23 00:13:42;;;;;;;2.88;1.45;;;12.30;99.90;;;;;;4976735;28;20481;-72
2023/09/23 00:16:11;;;;;;;2.40;1.27;;;12.30;99.90;;;;;;4994738;28;20039;-72
2023/09/23 00:18:38;;;;;;;3.78;1.50;;;12.40;99.90;;;;;;4977610;28;20050;-72
2023/09/23 00:21:05;;;;;;;3.53;1.70;;;12.30;99.90;;;;;;4976665;28;20083;-72
2023/09/23 00:23:33;;;;;;;2.50;1.30;;;12.30;99.90;;;;;;4977373;28;20057;-72
2023/09/23 00:26:01;;;;;;;3.47;1.75;;;12.40;99.90;;;;;;4977326;28;20118;-72
2023/09/23 00:28:30;;;;;;;3.83;1.77;;;12.40;99.90;;;;;;4976709;28;20046;-72
2023/09/23 00:31:11;;;;;;;2.95;1.65;;;12.40;99.90;;;;;;4976876;28;20054;-72
2023/09/23 00:33:37;;;;;;;3.95;1.77;;;12.40;99.90;;;;;;4977293;28;20060;-72
2023/09/23 00:36:05;;;;;;;4.03;2.03;;;12.40;99.90;;;;;;4976422;28;20081;-72
2023/09/23 00:38:32;;;;;;;4.57;1.80;;;12.40;99.90;;;;;;4977177;28;20125;-72
2023/09/23 00:40:58;;;;;;;3.03;1.60;;;12.40;99.90;;;;;;4975862;28;20105;-72
2023/09/23 00:43:23;;;;;;;2.70;1.48;;;12.40;99.90;;;;;;4977082;28;20051;-72
2023/09/23 00:45:54;;;;;;;3.50;1.50;;;12.40;99.90;;;;;;4976895;28;20043;-72
2023/09/23 00:48:22;;;;;;;5.55;1.73;;;12.30;99.90;;;;;;4976659;28;20482;-72
2023/09/23 00:50:50;;;;;;;5.13;1.90;;;12.30;99.90;;;;;;4976702;28;20048;-73
2023/09/23 00:53:17;;;;;;;2.63;1.55;;;12.30;99.90;;;;;;4976816;28;20441;-72
2023/09/23 00:55:51;;;;;;;3.50;1.52;;;12.20;99.90;;;;;;4993027;28;20065;-73
2023/09/23 00:58:21;;;;;;;2.90;1.60;;;12.20;99.90;;;;;;4976906;28;20402;-72
2023/09/23 01:00:48;;;;;;;3.58;1.80;;;12.10;99.90;;;;;;4975978;28;20417;-73
2023/09/23 01:03:15;;;;;;;3.00;1.85;;;12.10;99.90;;;;;;4976012;28;20140;-73
2023/09/23 01:05:42;;;;;;;3.47;1.95;;;12.10;99.90;;;;;;4976571;28;20096;-73
2023/09/23 01:08:11;;;;;;;4.53;1.90;;;12.00;99.90;;;;;;4976205;28;20050;-73
2023/09/23 01:10:37;;;;;;;3.30;2.00;;;12.00;99.90;;;;;;4993312;28;20046;-73
2023/09/23 01:13:08;;;;;;;4.70;2.03;;;11.90;99.90;;;;;;4976254;28;20082;-73
2023/09/23 01:15:40;;;;;;;3.75;2.58;;;11.90;99.90;;;;;;4976308;28;20042;-73
2023/09/23 01:18:09;;;;;;;4.03;2.42;;;11.90;99.90;;;;;;4975600;28;20624;-73
2023/09/23 01:20:35;;;;;;;4.03;2.58;;;11.90;99.90;;;;;;4976326;28;20500;-73
2023/09/23 01:23:01;;;;;;;3.92;2.30;;;11.80;99.90;;;;;;4992537;28;20397;-73
2023/09/23 01:25:26;;;;;;;5.32;3.00;;;11.80;99.90;;;;;;4976296;28;20034;-73
2023/09/23 01:27:53;;;;;;;6.78;3.13;;;11.70;99.90;;;;;;4976404;28;20049;-72
2023/09/23 01:30:21;;;;;;;5.07;2.83;;;11.60;99.90;;;;;;4975123;28;20125;-73
2023/09/23 01:32:49;;;;;;;7.43;3.50;;;11.60;99.90;;;;;;4976333;28;20498;-72
2023/09/23 01:35:16;;;;;;;5.25;3.15;;;11.70;99.90;;;;;;4976216;28;20470;-73
2023/09/23 01:37:44;;;;;;;5.75;3.50;;;11.50;99.90;;;;;;4975502;28;20598;-72
2023/09/23 01:40:16;;;;;;;5.40;3.30;;;11.60;99.90;;;;;;4975603;28;20125;-73
2023/09/23 01:42:42;;;;;;;5.05;3.50;;;11.60;99.90;;;;;;4976165;28;20046;-72
2023/09/23 01:45:10;;;;;;;5.70;4.20;;;11.60;99.90;;;;;;4974889;28;20047;-73
2023/09/23 01:47:37;;;;;;;5.72;4.25;;;11.50;99.90;;;;;;4976334;28;20054;-72
2023/09/23 01:50:03;;;;;;;6.25;4.50;;;11.60;99.90;;;;;;4975352;28;20054;-73
2023/09/23 01:52:29;;;;;;;5.45;4.32;;;11.40;99.90;;;;;;4975624;28;20054;-72
2023/09/23 01:54:55;;;;;;;7.30;4.53;;;11.50;99.90;;;;;;4975134;28;20382;-72
2023/09/23 01:57:20;;;;;;;5.90;4.13;;;11.30;99.90;;;;;;4975982;28;20061;-72
2023/09/23 01:59:46;;;;;;;7.70;5.07;;;12.10;99.90;;;;;;4974970;28;20050;-73
2023/09/23 02:02:12;;;;;;;7.90;4.95;;;11.20;99.90;;;;;;4975695;28;20050;-72
2023/09/23 02:04:41;;;;;;;6.97;4.60;;;11.20;99.90;;;;;;4976067;28;20038;-73
2023/09/23 02:07:07;;;;;;;6.90;5.18;;;11.20;99.90;;;;;;4990586;28;20045;-72
2023/09/23 02:09:37;;;;;;;7.32;4.57;;;11.10;99.90;;;;;;4975653;28;20534;-73
2023/09/23 02:12:03;;;;;;;6.05;4.63;;;11.10;99.90;;;;;;4975506;28;20489;-72
2023/09/23 02:14:30;;;;;;;9.93;5.30;;;11.10;99.90;;;;;;4974776;28;20050;-73
2023/09/23 02:16:57;;;;;;;6.07;4.13;;;11.70;99.90;;;;;;4975769;28;20058;-72
2023/09/23 02:19:24;;;;;;;7.63;4.80;;;11.00;99.90;;;;;;4974814;28;20109;-72
2023/09/23 02:21:51;;;;;;;7.95;4.55;;;11.00;99.90;;;;;;4975419;28;20093;-73
2023/09/23 02:24:18;;;;;;;6.95;4.68;;;10.90;99.90;;;;;;4976953;28;20097;-73
2023/09/23 02:26:48;;;;;;;6.90;5.10;;;10.90;99.90;;;;;;4996418;28;20490;-73
2023/09/23 02:29:15;;;;;;;7.85;5.28;;;10.90;99.90;;;;;;4979282;28;20089;-73
2023/09/23 02:31:49;;;;;;;7.53;5.20;;;10.90;99.90;;;;;;4979632;28;20466;-73
2023/09/23 02:34:18;;;;;;;7.18;4.35;;;10.90;99.90;;;;;;4996305;28;20141;-73
2023/09/23 02:36:51;;;;;;;8.73;4.57;;;10.90;99.90;;;;;;4996894;28;20045;-72
2023/09/23 02:39:20;;;;;;;6.57;4.18;;;10.80;99.90;;;;;;4997005;28;20042;-73
2023/09/23 02:41:47;;;;;;;7.90;4.43;;;10.80;99.90;;;;;;4978816;28;20062;-73
2023/09/23 02:44:18;;;;;;;7.28;4.70;;;10.80;99.90;;;;;;4979323;28;20435;-73
2023/09/23 02:46:48;;;;;;;5.97;4.22;;;10.80;99.90;;;;;;4979611;28;20061;-73
2023/09/23 02:49:15;;;;;;;8.00;4.32;;;10.80;99.90;;;;;;4978818;28;20050;-73
2023/09/23 02:51:44;;;;;;;6.82;4.20;;;10.80;99.90;;;;;;4996383;28;20038;-73
2023/09/23 02:54:15;;;;;;;7.80;3.90;;;10.80;99.90;;;;;;4979024;28;20442;-73
2023/09/23 02:56:41;;;;;;;7.68;4.05;;;10.80;99.90;;;;;;4995378;28;20050;-73
2023/09/23 02:59:14;;;;;;;6.80;3.97;;;10.80;99.90;;;;;;4978645;28;20511;-72
2023/09/23 03:01:45;;;;;;;9.30;4.30;;;10.80;99.90;;;;;;4978252;28;20070;-72
2023/09/23 03:04:23;;;;;;;7.40;3.97;;;10.80;99.90;;;;;;4978803;28;20046;-72
2023/09/23 03:06:50;;;;;;;5.85;4.05;;;10.80;99.90;;;;;;4978671;28;20046;-72
2023/09/23 03:09:21;;;;;;;8.85;4.30;;;11.10;99.90;;;;;;4977602;28;20197;-73
2023/09/23 03:11:53;;;;;;;8.15;4.50;;;10.90;99.90;;;;;;4996163;28;20046;-72
2023/09/23 03:14:22;;;;;;;8.23;4.68;;;11.30;99.90;;;;;;4978743;28;20061;-73
2023/09/23 03:16:51;;;;;;;7.38;4.30;;;10.80;99.90;;;;;;4977904;28;20065;-73
2023/09/23 03:19:23;;;;;;;7.00;4.60;;;11.00;99.90;;;;;;4978391;28;20050;-72
2023/09/23 03:21:50;;;;;;;6.38;4.55;;;11.00;99.90;;;;;;4994412;28;20046;-72
2023/09/23 03:24:16;;;;;;;7.40;3.85;;;11.00;99.90;;;;;;4977937;28;20066;-72
2023/09/23 03:26:46;;;;;;;8.48;4.57;;;11.10;99.90;;;;;;4995997;28;20545;-73
2023/09/23 03:29:18;;;;;;;6.25;4.28;;;11.20;99.90;;;;;;4978686;28;20054;-72
2023/09/23 03:31:44;;;;;;;6.20;4.30;;;11.20;99.90;;;;;;4995061;28;20050;-72
2023/09/23 03:34:13;;;;;;;6.85;4.35;;;11.10;99.90;;;;;;4995468;28;20053;-72
2023/09/23 03:36:39;;;;;;;9.18;4.65;;;11.10;99.90;;;;;;4977586;28;20055;-72
2023/09/23 03:39:05;;;;;;;6.07;4.30;;;11.10;99.90;;;;;;4977264;28;20045;-72
2023/09/23 03:41:33;;;;;;;7.72;4.45;;;11.20;99.90;;;;;;4978459;28;20065;-72
2023/09/23 03:44:02;;;;;;;7.03;4.10;;;11.20;99.90;;;;;;4994582;28;20085;-72
2023/09/23 03:46:29;;;;;;;7.25;3.70;;;11.20;99.90;;;;;;4995529;28;20517;-72
2023/09/23 03:48:55;;;;;;;6.53;3.90;;;11.20;99.90;;;;;;4977815;28;20046;-72
2023/09/23 03:51:20;;;;;;;7.63;3.90;;;11.30;99.90;;;;;;4977245;28;20146;-72
2023/09/23 03:53:48;;;;;;;6.55;3.70;;;11.30;99.90;;;;;;4978357;28;20050;-72
2023/09/23 03:56:14;;;;;;;6.95;3.80;;;11.30;99.90;;;;;;4977709;28;20062;-72
2023/09/23 03:58:40;;;;;;;7.22;3.72;;;11.20;99.90;;;;;;4977176;28;20050;-72
2023/09/23 04:01:10;;;;;;;5.40;3.92;;;11.20;99.90;;;;;;4977635;28;20058;-72
2023/09/23 04:03:36;;;;;;;6.55;4.10;;;11.20;99.90;;;;;;4995328;28;20055;-72
2023/09/23 04:06:01;;;;;;;6.53;3.83;;;11.20;99.90;;;;;;4994605;28;20057;-72
2023/09/23 04:08:27;;;;;;;6.25;4.22;;;11.10;99.90;;;;;;4994799;28;20061;-72
2023/09/23 04:10:53;;;;;;;5.70;3.80;;;11.10;99.90;;;;;;4994783;28;20034;-72
2023/09/23 04:13:19;;;;;;;7.20;3.85;;;11.10;99.90;;;;;;4976962;28;20092;-72
2023/09/23 04:15:44;;;;;;;8.15;4.60;;;11.00;99.90;;;;;;4995555;28;20042;-72
2023/09/23 04:18:10;;;;;;;6.00;4.30;;;11.00;99.90;;;;;;4994998;28;20038;-72
2023/09/23 04:20:36;;;;;;;5.45;3.90;;;11.00;99.90;;;;;;4977117;28;20405;-72
2023/09/23 04:23:06;;;;;;;8.27;4.32;;;10.90;99.90;;;;;;4976903;28;20057;-72
2023/09/23 04:25:31;;;;;;;8.50;4.53;;;11.50;99.90;;;;;;4994922;28;20060;-72
2023/09/23 04:27:57;;;;;;;5.63;4.57;;;11.40;99.90;;;;;;4976707;28;20038;-72
2023/09/23 04:30:23;;;;;;;6.53;5.40;;;11.20;99.90;;;;;;4993495;28;20050;-72
2023/09/23 04:32:49;;;;;;;7.00;4.93;;;11.00;99.90;;;;;;4994568;28;20046;-72
2023/09/23 04:35:15;;;;;;;7.07;5.22;;;11.00;99.90;;;;;;4993860;28;20074;-72
2023/09/23 04:37:41;;;;;;;6.97;5.38;;;11.00;99.90;;;;;;4994847;28;20042;-72
2023/09/23 04:40:12;;;;;;;8.80;6.15;;;11.20;99.90;;;;;;4975471;28;20050;-72
2023/09/23 04:42:39;;;;;;;8.15;6.18;;;11.20;99.90;;;;;;4994533;28;20046;-72
2023/09/23 04:45:05;;;;;;;7.93;6.30;;;11.00;99.90;;;;;;4977210;28;20050;-72
2023/09/23 04:47:32;;;;;;;8.65;6.32;;;11.00;99.90;;;;;;4993383;28;20371;-72
2023/09/23 04:50:01;;;;;;;8.13;6.68;;;11.10;99.90;;;;;;4994060;28;20101;-72
2023/09/23 04:52:29;;;;;;;7.85;6.63;;;11.00;99.90;;;;;;4977076;28;20058;-71
2023/09/23 04:54:55;;;;;;;9.00;7.43;;;11.10;99.90;;;;;;4992128;28;20034;-71
2023/09/23 04:57:21;;;;;;;10.43;7.90;;;11.20;99.90;;;;;;4994135;28;20104;-72
2023/09/23 04:59:47;;;;;;;10.52;8.00;;;11.10;99.90;;;;;;4976531;28;20065;-72
2023/09/23 05:02:13;;;;;;;9.43;8.00;;;11.10;99.90;;;;;;4976198;28;20488;-72
2023/09/23 05:04:39;;;;;;;10.50;7.70;;;11.10;99.90;;;;;;4977232;28;20506;-72
2023/09/23 05:07:05;;;;;;;9.85;7.75;;;11.10;99.90;;;;;;4976135;28;20050;-74
2023/09/23 05:09:31;;;;;;;9.52;7.78;;;11.10;99.90;;;;;;4992705;28;20034;-72
2023/09/23 05:11:57;;;;;;;10.55;7.55;;;12.30;99.90;;;;;;4975034;28;20073;-72
2023/09/23 05:14:25;;;;;;;9.07;7.38;;;11.20;99.90;;;;;;4975353;28;20049;-72
2023/09/23 05:16:51;;;;;;;10.48;7.22;;;11.20;99.90;;;;;;4974936;28;20054;-73
2023/09/23 05:19:20;;;;;;;8.52;6.78;;;11.30;99.90;;;;;;4975887;28;20042;-72
2023/09/23 05:21:46;;;;;;;9.60;7.28;;;11.30;99.90;;;;;;4975583;28;20054;-73
2023/09/23 05:24:12;;;;;;;12.85;7.35;;;11.30;99.90;;;;;;4989946;28;20073;-74
2023/09/23 05:26:40;;;;;;;10.63;7.45;;;11.30;99.90;;;;;;4976152;28;20078;-71
2023/09/23 05:29:06;;;;;;;10.40;7.57;;;11.30;99.90;;;;;;4975735;28;20058;-71
2023/09/23 05:31:32;;;;;;;11.10;7.70;;;11.30;99.90;;;;;;4975025;28;20038;-72
2023/09/23 05:33:57;;;;;;;10.05;7.30;;;11.30;99.90;;;;;;4975137;28;20042;-72
2023/09/23 05:36:23;;;;;;;9.25;6.95;;;11.50;99.90;;;;;;4973945;28;20035;-72
2023/09/23 05:38:48;;;;;;;11.35;7.60;;;11.50;99.90;;;;;;4976122;28;20049;-72
2023/09/23 05:41:15;;;;;;;8.75;6.95;;;11.60;99.90;;;;;;4976113;28;20414;-72
2023/09/23 05:43:40;;;;;;;8.55;7.38;;;11.60;99.90;;;;;;4975237;28;20406;-72
2023/09/23 05:46:07;;;;;;;9.75;7.38;;;11.50;99.90;;;;;;4976036;28;20054;-71
2023/09/23 05:48:33;;;;;;;11.27;7.57;;;11.90;99.90;;;;;;4971905;28;20073;-71
2023/09/23 05:51:05;;;;;;;9.85;7.32;;;11.70;99.90;;;;;;4992433;28;20096;-72
2023/09/23 05:53:35;;;;;;;11.13;7.45;;;11.70;99.90;;;;;;4992496;28;20046;-72
2023/09/23 05:56:00;;;;;;;10.77;7.22;;;11.80;99.90;;;;;;4975350;28;20050;-72
2023/09/23 05:58:26;;;;;;;10.15;6.82;;;11.80;99.90;;;;;;4974547;28;20058;-71
2023/09/23 06:00:52;;;;;;;10.27;7.82;;;12.00;99.90;;;;;;4964791;28;20054;-72
2023/09/23 06:03:18;;;;;;;11.98;7.60;;;12.10;99.90;;;;;;4988584;28;20440;-72
2023/09/23 06:05:47;;;;;;;10.52;7.82;;;12.10;99.90;;;;;;4991142;28;20050;-72
2023/09/23 06:08:12;;;;;;;9.90;7.28;;;12.20;99.90;;;;;;4992584;28;20042;-72
2023/09/23 06:10:39;;;;;;;10.45;7.55;;;12.30;99.90;;;;;;4974595;28;20065;-72
2023/09/23 06:13:09;;;;;;;9.95;6.53;;;12.50;99.90;;;;;;4973855;28;20129;-73
2023/09/23 06:15:35;;;;;;;9.63;6.90;;;12.70;99.90;;;;;;4975142;28;20097;-73
2023/09/23 06:18:01;;;;;;;11.75;6.75;;;12.80;99.90;;;;;;4999247;28;20038;-73
2023/09/23 06:20:27;;;;;;;10.20;7.13;;;13.00;99.90;;;;;;4974359;28;20050;-73
2023/09/23 06:22:52;;;;;;;11.95;7.43;;;13.10;99.90;;;;;;4974187;28;20097;-73
2023/09/23 06:25:18;;;;;;;10.15;7.15;;;13.20;99.90;;;;;;4975059;28;20434;-73
2023/09/23 06:27:44;;;;;;;6.10;2.63;;;13.40;99.90;;;;;;4973843;28;20466;-72
2023/09/23 06:30:10;;;;;;;4.05;1.85;;;13.30;99.90;;;;;;4974657;28;20038;-73
2023/09/23 06:32:35;;;;;;;3.70;1.70;;;13.30;99.90;;;;;;4973878;28;20403;-72
2023/09/23 06:35:08;;;;;;;3.08;1.35;;;13.20;99.90;;;;;;4974330;28;20110;-72
2023/09/23 06:37:36;;;;;;;3.25;1.25;;;13.20;99.90;;;;;;4972189;28;20050;-72
2023/09/23 06:40:02;;;;;;;2.80;1.10;;;13.10;99.90;;;;;;4973727;28;20137;-72
2023/09/23 06:42:28;;;;;;;5.28;1.60;;;13.10;99.90;;;;;;4974602;28;20042;-74
2023/09/23 06:44:54;;;;;;;3.97;0.93;;;13.10;99.90;;;;;;4973754;28;20046;-74
2023/09/23 06:47:20;;;;;;;2.90;1.10;;;13.10;99.90;;;;;;4974070;28;20398;-71
2023/09/23 06:49:45;;;;;;;3.10;1.10;;;13.10;99.90;;;;;;4974828;28;20077;-74
2023/09/23 06:52:20;;;;;;;5.20;1.20;;;13.10;99.90;;;;;;4974338;28;20445;-77
2023/09/23 06:54:46;;;;;;;3.20;1.30;;;13.10;99.90;;;;;;4973662;28;20088;-77
2023/09/23 06:57:11;;;;;;;4.88;1.17;;;13.30;99.90;;;;;;4996208;28;20058;-78
2023/09/23 06:59:37;;;;;;;3.28;1.40;;;13.30;99.90;;;;;;4996610;28;20125;-77
2023/09/23 07:02:03;;;;;;;2.38;1.20;;;13.20;99.90;;;;;;4972418;28;20605;-75
2023/09/23 07:04:29;;;;;;;4.55;1.67;;;13.20;99.90;;;;;;4973932;28;20054;-75
2023/09/23 07:06:57;;;;;;;2.75;1.27;;;13.30;99.90;;;;;;4974379;28;20049;-76
2023/09/23 07:09:23;;;;;;;6.20;1.73;;;13.30;99.90;;;;;;4991480;28;20065;-80
2023/09/23 07:11:48;;;;;;;3.13;1.50;;;13.20;99.90;;;;;;4995487;28;20459;-78
2023/09/23 07:14:14;;;;;;;7.00;1.60;;;13.20;99.90;;;;;;4977937;28;20042;-73
2023/09/23 07:16:39;;;;;;;5.25;1.67;;;13.20;99.90;;;;;;4987916;28;20169;-73
2023/09/23 07:19:05;;;;;;;3.08;1.27;;;13.20;99.90;;;;;;4992151;28;20044;-74
2023/09/23 07:21:34;;;;;;;2.65;1.20;;;13.20;99.90;;;;;;4976094;28;20038;-74
2023/09/23 07:23:59;;;;;;;3.28;1.30;;;13.40;99.90;;;;;;4967517;28;20034;-73
2023/09/23 07:26:25;;;;;;;4.18;1.25;;;13.40;99.90;;;;;;4988436;28;20105;-72
2023/09/23 07:28:51;;;;;;;4.85;1.17;;;13.60;99.90;;;;;;4976562;28;20113;-72
2023/09/23 07:31:17;;;;;;;3.30;1.30;;;13.70;99.90;;;;;;4973028;28;20375;-73
2023/09/23 07:33:44;;;;;;;3.88;1.20;;;14.20;99.90;;;;;;4979414;28;20046;-73
2023/09/23 07:36:13;;;;;;;3.17;1.20;;;15.30;99.90;;;;;;4974635;28;20122;-73
2023/09/23 07:38:39;;;;;;;3.20;1.25;;;16.60;99.90;;;;;;4982046;28;20129;-74
2023/09/23 07:41:06;;;;;;;4.63;1.20;;;17.80;99.90;;;;;;4992886;28;20500;-72
2023/09/23 07:43:32;;;;;;;4.43;1.13;;;18.90;99.90;;;;;;4991165;28;20039;-73
2023/09/23 07:45:58;;;;;;;3.00;1.13;;;19.90;99.90;;;;;;4970136;28;20062;-73
2023/09/23 07:48:24;;;;;;;5.03;1.27;;;20.50;99.90;;;;;;4989319;28;20141;-73
2023/09/23 07:50:49;;;;;;;4.78;1.20;;;20.80;99.90;;;;;;4970576;28;20043;-72
2023/09/23 07:53:15;;;;;;;4.28;1.40;;;21.40;99.90;;;;;;4974070;28;20042;-71
2023/09/23 07:55:41;;;;;;;5.30;1.35;;;21.50;99.90;;;;;;4971026;28;20058;-73
2023/09/23 07:58:07;;;;;;;4.97;1.60;;;21.70;99.90;;;;;;4965868;28;20102;-72
2023/09/23 08:00:32;;;;;;;5.05;1.20;;;21.90;99.90;;;;;;4969860;28;20515;-72
2023/09/23 08:02:58;;;;;;;4.63;1.27;;;22.50;99.90;;;;;;4960740;28;20450;-72
2023/09/23 08:05:24;;;;;;;4.22;1.40;;;23.30;99.90;;;;;;4968452;28;20041;-74
2023/09/23 08:07:51;;;;;;;3.15;1.27;;;23.40;99.90;;;;;;4967157;28;20050;-74
2023/09/23 08:10:17;;;;;;;3.53;1.30;;;24.00;99.90;;;;;;4960564;28;20050;-74
2023/09/23 08:12:44;;;;;;;3.75;1.17;;;24.40;99.90;;;;;;4970714;28;20034;-74
2023/09/23 08:15:11;;;;;;;5.85;1.20;;;24.80;99.90;;;;;;4970649;28;20047;-74
2023/09/23 08:17:40;;;;;;;3.30;1.05;;;25.20;99.40;;;;;;4969657;28;20070;-74
2023/09/23 08:20:17;;;;;;;2.70;0.90;;;25.30;99.00;;;;;;4969473;28;20517;-74
2023/09/23 08:22:47;;;;;;;5.25;1.00;;;26.00;97.90;;;;;;4969423;28;20094;-74
2023/09/23 08:25:14;;;;;;;3.25;0.93;;;25.80;97.80;;;;;;4971899;28;20454;-74
2023/09/23 08:27:41;;;;;;;3.42;0.70;;;25.90;97.40;;;;;;4967653;28;20046;-74
2023/09/23 08:30:08;;;;;;;2.55;0.85;;;26.30;95.10;;;;;;4967396;28;20128;-74
2023/09/23 08:32:37;;;;;;;3.50;1.13;;;26.30;94.60;;;;;;4973214;28;20043;-74
2023/09/23 08:35:07;;;;;;;4.20;1.73;;;25.90;95.80;;;;;;4960970;28;20074;-74
2023/09/23 08:37:35;;;;;;;3.72;1.05;;;25.60;96.10;;;;;;4972148;28;20427;-74
2023/09/23 08:40:06;;;;;;;2.20;0.70;;;24.80;97.20;;;;;;4969050;28;20046;-74
2023/09/23 08:42:34;;;;;;;3.50;0.90;;;24.30;97.10;;;;;;4961812;28;20054;-74
2023/09/23 08:45:00;;;;;;;2.47;0.70;;;24.00;97.90;;;;;;4970681;28;20078;-73
2023/09/23 08:47:29;;;;;;;4.07;1.02;;;24.50;98.70;;;;;;4966688;28;20043;-73
2023/09/23 08:49:55;;;;;;;2.78;0.80;;;25.90;96.70;;;;;;4970535;28;20050;-74
2023/09/23 08:52:25;;;;;;;4.28;0.88;;;25.90;95.50;;;;;;4965110;28;20372;-73
2023/09/23 08:54:50;;;;;;;2.58;0.80;;;25.80;96.70;;;;;;4966577;28;20077;-73
2023/09/23 08:57:16;;;;;;;4.07;0.80;;;25.90;96.30;;;;;;4969500;28;20517;-73
2023/09/23 08:59:45;;;;;;;2.40;0.70;;;26.70;95.90;;;;;;4956705;28;20047;-74
2023/09/23 09:02:20;;;;;;;1.92;0.63;;;26.60;94.80;;;;;;4952813;28;20050;-73
2023/09/23 09:04:46;;;;;;;3.55;1.00;;;26.60;94.50;;;;;;4945235;29;20090;-74
2023/09/23 09:07:15;;;;;;;1.70;0.80;;;26.20;95.20;;;;;;4968788;28;20043;-75
2023/09/23 09:09:42;;;;;;;2.38;0.77;;;25.70;96.50;;;;;;4956480;28;20051;-75
2023/09/23 09:12:09;;;;;;;2.22;0.70;;;25.50;96.60;;;;;;4954579;28;20054;-74
2023/09/23 09:14:37;;;;;;;3.33;0.70;;;25.30;96.20;;;;;;4973227;28;20119;-75
2023/09/23 09:17:09;;;;;;;4.20;0.90;;;24.90;97.50;;;;;;4969515;28;20509;-74
2023/09/23 09:19:36;;;;;;;3.00;0.80;;;24.20;97.60;;;;;;4955808;28;20182;-74
2023/09/23 09:22:05;;;;;;;3.03;0.80;;;24.40;98.20;;;;;;4947134;28;20405;-74
2023/09/23 09:24:30;;;;;;;2.63;0.80;;;24.90;98.10;;;;;;4954831;28;20057;-74
2023/09/23 09:26:56;;;;;;;3.50;1.00;;;25.70;97.30;;;;;;4954886;28;20043;-74
2023/09/23 09:29:21;;;;;;;3.25;0.88;;;26.20;96.20;;;;;;4972519;28;20125;-74
2023/09/23 09:31:52;;;;;;;7.35;1.05;;;26.20;95.10;;;;;;4973129;28;20058;-74
2023/09/23 09:34:30;;;;;;;3.17;0.75;;;26.10;94.30;;;;;;4973593;28;20043;-74
2023/09/23 09:40:11;;;;;;;2.13;0.70;;;24.40;97.20;;;;;;4966646;28;20490;-75
2023/09/23 09:42:39;;;;;;;4.07;0.90;;;24.60;96.80;;;;;;4950773;28;20102;-75
2023/09/23 09:45:09;;;;;;;3.72;0.90;;;23.80;96.70;;;;;;4954946;28;20042;-74
2023/09/23 09:47:38;;;;;;;3.45;0.80;;;24.10;97.60;;;;;;4956090;28;20070;-74
2023/09/23 09:50:04;;;;;;;2.40;0.60;;;24.90;97.10;;;;;;4955257;28;20490;-75
2023/09/23 09:52:31;;;;;;;5.97;1.65;;;26.10;95.20;;;;;;4971268;28;20050;-75
2023/09/23 09:55:00;;;;;;;2.92;1.00;;;26.40;95.30;;;;;;4937890;28;20078;-75
2023/09/23 09:57:36;;;;;;;3.28;0.80;;;27.30;93.70;;;;;;4972484;28;20084;-75
2023/09/23 10:00:20;;;;;;;3.05;1.10;;;27.90;93.50;;;;;;4973249;28;20383;-74
2023/09/23 10:02:47;;;;;;;1.70;0.65;;;28.10;93.50;;;;;;4972966;28;20478;-74
2023/09/23 10:05:20;;;;;;;2.15;1.05;;;28.00;92.10;;;;;;4954690;28;20155;-75
2023/09/23 10:07:55;;;;;;;1.58;0.73;;;28.00;92.50;;;;;;4955025;28;20086;-74
2023/09/23 10:10:31;;;;;;;;;;;28.20;91.60;;;;;;4954929;28;20450;-75
2023/09/23 10:13:19;;;;;;;2.25;0.70;;;27.60;92.10;;;;;;4978762;28;19972;-75
2023/09/23 10:15:45;;;;;;;1.67;0.65;;;27.30;92.00;;;;;;4951740;28;20135;-74
2023/09/23 10:18:18;;;;;;;2.20;0.77;;;25.90;92.90;;;;;;4954897;28;20503;-73
2023/09/23 10:20:52;;;;;;;2.67;0.88;;;24.70;94.60;;;;;;4950371;29;20098;-74
2023/09/23 10:23:26;;;;;;;4.15;1.45;;;24.00;95.20;;;;;;4939625;29;20095;-74
2023/09/23 10:25:52;;;;;;;2.90;0.85;;;23.50;97.30;;;;;;4950431;28;20038;-75
2023/09/23 10:28:20;;;;;;;1.98;0.90;;;23.90;98.00;;;;;;4955767;28;20105;-74
2023/09/23 10:30:59;;;;;;;4.40;1.35;;;24.00;97.40;;;;;;4972895;28;20047;-73
2023/09/23 10:33:26;;;;;;;3.33;1.42;;;23.30;97.20;;;;;;4953135;28;20035;-75
2023/09/23 10:35:53;;;;;;;2.10;0.73;;;22.90;99.00;;;;;;4955181;28;20055;-75
2023/09/23 10:38:27;;;;;;;2.95;0.95;;;22.40;99.90;;;;;;4951722;28;20039;-75
2023/09/23 10:40:54;;;;;;;3.78;1.02;;;21.90;99.90;;;;;;4964176;28;20042;-75
2023/09/23 10:43:24;;;;;;;2.45;0.82;;;21.30;99.90;;;;;;4972876;28;20494;-76
2023/09/23 10:45:53;;;;;;;4.70;0.90;;;20.60;99.90;;;;;;4951352;28;20043;-74
2023/09/23 10:48:19;;;;;;;1.73;0.65;;;19.90;99.90;;;;;;4959268;28;20042;-74
2023/09/23 10:50:46;;;;;;;2.08;0.70;;;19.50;99.90;;;;;;4950319;28;20050;-74
2023/09/23 10:53:14;;;;;;;3.13;1.10;;;19.20;99.90;;;;;;4957559;28;20166;-75
2023/09/23 10:55:41;;;;;;;3.22;1.17;;;19.30;99.90;;;;;;4975395;28;20042;-76
2023/09/23 10:58:08;;;;;;;2.83;1.00;;;19.20;99.90;;;;;;4980999;28;20204;-75
2023/09/23 11:00:36;;;;;;;3.42;1.20;;;19.50;99.90;;;;;;4977979;28;20047;-77
2023/09/23 11:03:09;;;;;;;3.22;1.23;;;19.90;99.90;;;;;;4973408;28;20054;-76
2023/09/23 11:05:39;;;;;;;2.75;1.08;;;20.10;99.90;;;;;;4991048;28;20042;-84
2023/09/23 11:08:10;;;;;;;3.67;1.02;;;20.60;99.90;;;;;;4995007;28;20050;-79
2023/09/23 11:10:38;;;;;;;5.28;1.10;;;21.30;99.90;;;;;;4993206;28;20054;-80
2023/09/23 11:13:05;;;;;;;4.38;0.95;;;22.40;99.90;;;;;;4965102;28;20042;-78
2023/09/23 11:15:31;;;;;;;2.58;0.90;;;22.90;99.90;;;;;;4967066;28;20055;-79
2023/09/23 11:17:57;;;;;;;3.38;1.08;;;23.30;99.90;;;;;;4977545;28;20528;-81
2023/09/23 11:20:31;;;;;;;4.28;1.20;;;23.40;99.90;;;;;;4977783;28;20482;-80
2023/09/23 11:23:03;;;;;;;4.30;1.02;;;22.70;99.90;;;;;;4994631;28;20042;-82
2023/09/23 11:25:30;;;;;;;3.65;1.20;;;22.70;99.90;;;;;;4976968;28;20093;-79
2023/09/23 11:27:59;;;;;;;3.85;1.13;;;23.10;99.90;;;;;;4989811;28;20461;-84
2023/09/23 11:30:25;;;;;;;5.95;1.00;;;24.20;99.90;;;;;;4977399;28;20105;-77
2023/09/23 11:32:53;;;;;;;4.18;1.08;;;24.90;99.60;;;;;;4977335;28;20042;-80
2023/09/23 11:35:20;;;;;;;3.13;1.00;;;25.30;97.70;;;;;;4976349;28;20045;-79
2023/09/23 11:37:47;;;;;;;2.78;0.82;;;26.00;97.30;;;;;;4995326;28;20050;-80
2023/09/23 11:40:14;;;;;;;3.28;1.10;;;26.50;96.40;;;;;;4978199;28;20545;-77
2023/09/23 11:42:46;;;;;;;2.75;0.90;;;26.90;95.60;;;;;;4972366;28;20112;-77
2023/09/23 11:45:12;;;;;;;3.15;0.88;;;26.90;95.50;;;;;;4994495;28;20138;-77
2023/09/23 11:47:38;;;;;;;2.65;0.90;;;26.90;95.30;;;;;;4968087;28;20048;-73
2023/09/23 11:50:06;;;;;;;3.03;0.90;;;27.10;95.80;;;;;;4976118;28;20046;-70
2023/09/23 11:52:35;;;;;;;3.75;0.80;;;27.40;94.00;;;;;;4975599;28;20069;-72
2023/09/23 11:55:01;;;;;;;2.10;0.70;;;27.00;93.70;;;;;;4967707;28;20081;-70
2023/09/23 11:57:26;;;;;;;1.65;0.70;;;26.80;92.60;;;;;;4954759;28;20451;-70
2023/09/23 11:59:52;;;;;;;2.15;0.80;;;27.30;92.90;;;;;;4960796;28;20399;-72
2023/09/23 12:02:19;;;;;;;3.10;0.70;;;27.60;92.10;;;;;;4978630;28;20077;-70
2023/09/23 12:04:48;;;;;;;2.60;0.75;;;27.50;92.00;;;;;;4972833;28;20486;-72
2023/09/23 12:07:15;;;;;;;2.80;0.75;;;27.60;92.40;;;;;;4974329;28;20065;-71
2023/09/23 12:09:41;;;;;;;1.38;0.70;;;27.80;92.20;;;;;;4954651;28;20774;-69
2023/09/23 12:12:10;;;;;;;4.88;0.90;;;27.50;91.80;;;;;;4956138;28;20050;-71
2023/09/23 12:14:36;;;;;;;1.42;0.60;;;28.20;91.80;;;;;;4936743;28;20056;-71
2023/09/23 12:17:03;;;;;;;3.78;0.63;;;28.20;91.90;;;;;;4973104;28;20053;-73
2023/09/23 12:19:28;;;;;;;2.83;0.80;;;28.10;91.50;;;;;;4955433;28;20058;-75
2023/09/23 12:21:54;;;;;;;3.58;0.73;;;28.00;91.50;;;;;;4970177;28;20070;-70
2023/09/23 12:24:21;;;;;;;3.17;0.80;;;27.40;92.10;;;;;;4958491;28;20046;-71
2023/09/23 12:26:47;;;;;;;2.50;0.80;;;28.00;92.70;;;;;;4978335;28;20050;-72
2023/09/23 12:29:13;;;;;;;2.35;0.93;;;27.90;92.00;;;;;;4958763;28;20042;-71
2023/09/23 12:31:38;;;;;;;4.70;0.80;;;27.70;92.10;;;;;;4954438;28;20469;-71
2023/09/23 12:34:04;;;;;;;2.22;0.77;;;27.20;91.70;;;;;;4980342;28;20049;-72
2023/09/23 12:36:30;;;;;;;2.97;0.90;;;26.60;92.10;;;;;;4975912;28;20041;-80
2023/09/23 12:38:57;;;;;;;3.28;0.90;;;25.70;92.70;;;;;;4972946;28;20079;-76
2023/09/23 12:41:22;;;;;;;2.63;0.80;;;24.70;94.00;;;;;;4961037;28;20043;-73
2023/09/23 12:43:48;;;;;;;2.70;0.77;;;24.00;94.70;;;;;;4956141;28;20051;-74
2023/09/23 12:46:14;;;;;;;2.42;0.70;;;23.50;95.40;;;;;;4975494;28;20035;-73
2023/09/23 12:48:40;;;;;;;2.03;0.80;;;22.90;95.60;;;;;;4956394;28;20474;-72
2023/09/23 12:51:05;;;;;;;3.45;0.80;;;22.40;96.50;;;;;;4971072;28;20229;-73